sensor_id;sensor_type;location;lat;lon;timestamp;P1;durP1;ratioP1;P2;durP2;ratioP2
31872;SDS011;22407;42.820;23.374;2024-03-17T00:01:01;15.80;;;7.83;;
31872;SDS011;22407;42.820;23.374;2024-03-17T00:03:27;15.27;;;7.80;;
31872;SDS011;22407;42.820;23.374;2024-03-17T00:05:57;16.63;;;7.75;;
31872;SDS011;22407;42.820;23.374;2024-03-17T00:08:22;15.03;;;7.53;;
31872;SDS011;22407;42.820;23.374;2024-03-17T00:10:51;16.73;;;7.57;;
31872;SDS011;22407;42.820;23.374;2024-03-17T00:13:18;18.98;;;7.93;;
31872;SDS011;22407;42.820;23.374;2024-03-17T00:15:43;19.10;;;9.13;;
31872;SDS011;22407;42.820;23.374;2024-03-17T00:18:09;26.83;;;11.40;;
31872;SDS011;22407;42.820;23.374;2024-03-17T00:20:36;21.02;;;9.63;;
31872;SDS011;22407;42.820;23.374;2024-03-17T00:23:03;18.00;;;8.70;;
31872;SDS011;22407;42.820;23.374;2024-03-17T00:25:32;18.77;;;7.97;;
31872;SDS011;22407;42.820;23.374;2024-03-17T00:27:59;19.27;;;8.98;;
31872;SDS011;22407;42.820;23.374;2024-03-17T00:30:25;18.13;;;8.25;;
31872;SDS011;22407;42.820;23.374;2024-03-17T00:32:50;17.10;;;8.20;;
31872;SDS011;22407;42.820;23.374;2024-03-17T00:35:16;15.68;;;7.53;;
31872;SDS011;22407;42.820;23.374;2024-03-17T00:37:48;15.57;;;7.68;;
31872;SDS011;22407;42.820;23.374;2024-03-17T00:40:14;17.47;;;7.60;;
31872;SDS011;22407;42.820;23.374;2024-03-17T00:42:42;15.30;;;7.10;;
31872;SDS011;22407;42.820;23.374;2024-03-17T00:45:08;18.50;;;8.52;;
31872;SDS011;22407;42.820;23.374;2024-03-17T00:47:35;17.63;;;8.00;;
31872;SDS011;22407;42.820;23.374;2024-03-17T00:50:01;16.00;;;7.55;;
31872;SDS011;22407;42.820;23.374;2024-03-17T00:52:28;17.70;;;7.53;;
31872;SDS011;22407;42.820;23.374;2024-03-17T00:54:53;15.23;;;6.82;;
31872;SDS011;22407;42.820;23.374;2024-03-17T00:57:19;15.80;;;6.87;;
31872;SDS011;22407;42.820;23.374;2024-03-17T00:59:44;14.90;;;7.27;;
31872;SDS011;22407;42.820;23.374;2024-03-17T01:02:11;16.83;;;6.88;;
31872;SDS011;22407;42.820;23.374;2024-03-17T01:04:41;15.35;;;7.25;;
31872;SDS011;22407;42.820;23.374;2024-03-17T01:07:10;16.80;;;7.30;;
31872;SDS011;22407;42.820;23.374;2024-03-17T01:09:36;14.33;;;7.53;;
31872;SDS011;22407;42.820;23.374;2024-03-17T01:12:02;15.30;;;7.22;;
31872;SDS011;22407;42.820;23.374;2024-03-17T01:14:28;16.17;;;7.88;;
31872;SDS011;22407;42.820;23.374;2024-03-17T01:16:55;15.97;;;7.53;;
31872;SDS011;22407;42.820;23.374;2024-03-17T01:19:21;16.20;;;7.95;;
31872;SDS011;22407;42.820;23.374;2024-03-17T01:21:47;16.63;;;7.65;;
31872;SDS011;22407;42.820;23.374;2024-03-17T01:24:12;16.10;;;7.27;;
31872;SDS011;22407;42.820;23.374;2024-03-17T01:26:38;16.30;;;7.43;;
31872;SDS011;22407;42.820;23.374;2024-03-17T01:29:04;16.70;;;7.93;;
31872;SDS011;22407;42.820;23.374;2024-03-17T01:31:29;17.60;;;7.50;;
31872;SDS011;22407;42.820;23.374;2024-03-17T01:33:55;17.60;;;7.63;;
31872;SDS011;22407;42.820;23.374;2024-03-17T01:36:21;15.33;;;7.20;;
31872;SDS011;22407;42.820;23.374;2024-03-17T01:38:46;17.13;;;7.68;;
31872;SDS011;22407;42.820;23.374;2024-03-17T01:41:12;16.83;;;7.43;;
31872;SDS011;22407;42.820;23.374;2024-03-17T01:43:38;17.00;;;8.45;;
31872;SDS011;22407;42.820;23.374;2024-03-17T01:46:04;16.60;;;7.63;;
31872;SDS011;22407;42.820;23.374;2024-03-17T01:48:30;17.40;;;7.90;;
31872;SDS011;22407;42.820;23.374;2024-03-17T01:50:56;18.75;;;8.85;;
31872;SDS011;22407;42.820;23.374;2024-03-17T01:53:22;17.67;;;8.97;;
31872;SDS011;22407;42.820;23.374;2024-03-17T01:55:50;16.48;;;8.38;;
31872;SDS011;22407;42.820;23.374;2024-03-17T01:58:19;15.73;;;7.90;;
31872;SDS011;22407;42.820;23.374;2024-03-17T02:00:45;16.15;;;7.30;;
31872;SDS011;22407;42.820;23.374;2024-03-17T02:03:11;20.10;;;8.77;;
31872;SDS011;22407;42.820;23.374;2024-03-17T02:05:38;15.38;;;7.30;;
31872;SDS011;22407;42.820;23.374;2024-03-17T02:08:07;14.30;;;7.35;;
31872;SDS011;22407;42.820;23.374;2024-03-17T02:10:33;16.87;;;7.87;;
31872;SDS011;22407;42.820;23.374;2024-03-17T02:12:59;15.63;;;7.40;;
31872;SDS011;22407;42.820;23.374;2024-03-17T02:15:25;15.20;;;7.38;;
31872;SDS011;22407;42.820;23.374;2024-03-17T02:17:51;15.03;;;7.03;;
31872;SDS011;22407;42.820;23.374;2024-03-17T02:20:17;16.35;;;7.80;;
31872;SDS011;22407;42.820;23.374;2024-03-17T02:22:43;17.60;;;7.60;;
31872;SDS011;22407;42.820;23.374;2024-03-17T02:25:08;16.17;;;8.10;;
31872;SDS011;22407;42.820;23.374;2024-03-17T02:27:34;14.35;;;7.75;;
31872;SDS011;22407;42.820;23.374;2024-03-17T02:30:01;15.50;;;7.80;;
31872;SDS011;22407;42.820;23.374;2024-03-17T02:32:27;14.55;;;7.60;;
31872;SDS011;22407;42.820;23.374;2024-03-17T02:34:53;16.63;;;7.77;;
31872;SDS011;22407;42.820;23.374;2024-03-17T02:37:19;15.00;;;8.02;;
31872;SDS011;22407;42.820;23.374;2024-03-17T02:39:44;14.70;;;7.37;;
31872;SDS011;22407;42.820;23.374;2024-03-17T02:42:10;15.53;;;7.57;;
31872;SDS011;22407;42.820;23.374;2024-03-17T02:44:37;16.13;;;8.33;;
31872;SDS011;22407;42.820;23.374;2024-03-17T02:47:04;14.38;;;7.43;;
31872;SDS011;22407;42.820;23.374;2024-03-17T02:49:31;15.85;;;7.25;;
31872;SDS011;22407;42.820;23.374;2024-03-17T02:52:02;17.02;;;7.72;;
31872;SDS011;22407;42.820;23.374;2024-03-17T02:54:29;14.55;;;7.45;;
31872;SDS011;22407;42.820;23.374;2024-03-17T02:56:55;16.77;;;7.50;;
31872;SDS011;22407;42.820;23.374;2024-03-17T02:59:21;16.48;;;7.63;;
31872;SDS011;22407;42.820;23.374;2024-03-17T03:01:46;16.87;;;7.80;;
31872;SDS011;22407;42.820;23.374;2024-03-17T03:04:12;15.37;;;7.07;;
31872;SDS011;22407;42.820;23.374;2024-03-17T03:06:38;16.10;;;6.75;;
31872;SDS011;22407;42.820;23.374;2024-03-17T03:09:03;17.53;;;8.13;;
31872;SDS011;22407;42.820;23.374;2024-03-17T03:11:35;18.35;;;8.25;;
31872;SDS011;22407;42.820;23.374;2024-03-17T03:14:00;19.03;;;7.93;;
31872;SDS011;22407;42.820;23.374;2024-03-17T03:16:26;16.23;;;7.80;;
31872;SDS011;22407;42.820;23.374;2024-03-17T03:18:51;16.90;;;8.00;;
31872;SDS011;22407;42.820;23.374;2024-03-17T03:21:17;17.67;;;7.97;;
31872;SDS011;22407;42.820;23.374;2024-03-17T03:23:42;16.48;;;7.50;;
31872;SDS011;22407;42.820;23.374;2024-03-17T03:26:09;16.93;;;7.57;;
31872;SDS011;22407;42.820;23.374;2024-03-17T03:28:35;18.02;;;8.20;;
31872;SDS011;22407;42.820;23.374;2024-03-17T03:31:01;18.17;;;7.55;;
31872;SDS011;22407;42.820;23.374;2024-03-17T03:33:27;14.90;;;7.57;;
31872;SDS011;22407;42.820;23.374;2024-03-17T03:35:53;17.13;;;8.02;;
31872;SDS011;22407;42.820;23.374;2024-03-17T03:38:21;15.82;;;7.28;;
31872;SDS011;22407;42.820;23.374;2024-03-17T03:40:47;16.27;;;7.40;;
31872;SDS011;22407;42.820;23.374;2024-03-17T03:43:13;15.15;;;7.22;;
31872;SDS011;22407;42.820;23.374;2024-03-17T03:45:39;15.80;;;7.72;;
31872;SDS011;22407;42.820;23.374;2024-03-17T03:48:05;16.83;;;8.35;;
31872;SDS011;22407;42.820;23.374;2024-03-17T03:50:31;16.00;;;7.63;;
31872;SDS011;22407;42.820;23.374;2024-03-17T03:52:58;15.32;;;7.57;;
31872;SDS011;22407;42.820;23.374;2024-03-17T03:55:24;15.30;;;7.68;;
31872;SDS011;22407;42.820;23.374;2024-03-17T03:57:49;17.07;;;7.87;;
31872;SDS011;22407;42.820;23.374;2024-03-17T04:00:17;17.15;;;8.27;;
31872;SDS011;22407;42.820;23.374;2024-03-17T04:02:47;16.73;;;7.85;;
31872;SDS011;22407;42.820;23.374;2024-03-17T04:05:15;16.93;;;7.50;;
31872;SDS011;22407;42.820;23.374;2024-03-17T04:07:41;17.70;;;7.75;;
31872;SDS011;22407;42.820;23.374;2024-03-17T04:10:08;19.10;;;8.77;;
31872;SDS011;22407;42.820;23.374;2024-03-17T04:12:35;15.63;;;7.70;;
31872;SDS011;22407;42.820;23.374;2024-03-17T04:15:01;22.15;;;11.07;;
31872;SDS011;22407;42.820;23.374;2024-03-17T04:17:26;20.80;;;8.67;;
31872;SDS011;22407;42.820;23.374;2024-03-17T04:19:53;16.02;;;7.65;;
31872;SDS011;22407;42.820;23.374;2024-03-17T04:22:19;17.47;;;7.57;;
31872;SDS011;22407;42.820;23.374;2024-03-17T04:24:47;24.83;;;11.38;;
31872;SDS011;22407;42.820;23.374;2024-03-17T04:27:18;27.25;;;13.45;;
31872;SDS011;22407;42.820;23.374;2024-03-17T04:29:46;27.50;;;12.07;;
31872;SDS011;22407;42.820;23.374;2024-03-17T04:32:13;25.75;;;10.75;;
31872;SDS011;22407;42.820;23.374;2024-03-17T04:34:39;21.70;;;10.83;;
31872;SDS011;22407;42.820;23.374;2024-03-17T04:37:04;18.27;;;8.82;;
31872;SDS011;22407;42.820;23.374;2024-03-17T04:39:30;17.60;;;7.57;;
31872;SDS011;22407;42.820;23.374;2024-03-17T04:41:56;17.98;;;8.68;;
31872;SDS011;22407;42.820;23.374;2024-03-17T04:44:22;20.97;;;10.10;;
31872;SDS011;22407;42.820;23.374;2024-03-17T04:46:48;18.25;;;8.90;;
31872;SDS011;22407;42.820;23.374;2024-03-17T04:49:13;16.95;;;8.52;;
31872;SDS011;22407;42.820;23.374;2024-03-17T04:51:39;17.67;;;8.57;;
31872;SDS011;22407;42.820;23.374;2024-03-17T04:54:05;18.08;;;8.80;;
31872;SDS011;22407;42.820;23.374;2024-03-17T04:56:34;18.27;;;8.27;;
31872;SDS011;22407;42.820;23.374;2024-03-17T04:59:00;19.60;;;8.90;;
31872;SDS011;22407;42.820;23.374;2024-03-17T05:01:25;18.50;;;8.67;;
31872;SDS011;22407;42.820;23.374;2024-03-17T05:03:51;16.97;;;8.40;;
31872;SDS011;22407;42.820;23.374;2024-03-17T05:06:17;18.83;;;9.65;;
31872;SDS011;22407;42.820;23.374;2024-03-17T05:08:42;18.80;;;8.60;;
31872;SDS011;22407;42.820;23.374;2024-03-17T05:11:08;18.63;;;9.15;;
31872;SDS011;22407;42.820;23.374;2024-03-17T05:13:34;17.47;;;8.90;;
31872;SDS011;22407;42.820;23.374;2024-03-17T05:16:01;19.30;;;9.07;;
31872;SDS011;22407;42.820;23.374;2024-03-17T05:18:28;19.83;;;8.27;;
31872;SDS011;22407;42.820;23.374;2024-03-17T05:21:01;18.83;;;9.07;;
31872;SDS011;22407;42.820;23.374;2024-03-17T05:23:33;19.00;;;9.73;;
31872;SDS011;22407;42.820;23.374;2024-03-17T05:25:59;19.40;;;9.10;;
31872;SDS011;22407;42.820;23.374;2024-03-17T05:28:26;17.88;;;8.85;;
31872;SDS011;22407;42.820;23.374;2024-03-17T05:30:53;16.90;;;8.13;;
31872;SDS011;22407;42.820;23.374;2024-03-17T05:33:19;22.88;;;11.50;;
31872;SDS011;22407;42.820;23.374;2024-03-17T05:35:59;46.45;;;21.33;;
31872;SDS011;22407;42.820;23.374;2024-03-17T05:38:27;24.20;;;11.60;;
31872;SDS011;22407;42.820;23.374;2024-03-17T05:40:59;20.50;;;9.70;;
31872;SDS011;22407;42.820;23.374;2024-03-17T05:43:29;27.30;;;12.02;;
31872;SDS011;22407;42.820;23.374;2024-03-17T05:46:01;50.22;;;18.02;;
31872;SDS011;22407;42.820;23.374;2024-03-17T05:48:28;56.55;;;18.60;;
31872;SDS011;22407;42.820;23.374;2024-03-17T05:50:54;50.08;;;19.33;;
31872;SDS011;22407;42.820;23.374;2024-03-17T05:53:21;35.33;;;16.53;;
31872;SDS011;22407;42.820;23.374;2024-03-17T05:55:49;37.08;;;16.88;;
31872;SDS011;22407;42.820;23.374;2024-03-17T05:58:15;37.42;;;16.92;;
31872;SDS011;22407;42.820;23.374;2024-03-17T06:00:40;38.83;;;17.10;;
31872;SDS011;22407;42.820;23.374;2024-03-17T06:03:06;34.83;;;16.77;;
31872;SDS011;22407;42.820;23.374;2024-03-17T06:05:32;32.42;;;16.60;;
31872;SDS011;22407;42.820;23.374;2024-03-17T06:08:02;32.20;;;16.67;;
31872;SDS011;22407;42.820;23.374;2024-03-17T06:10:32;39.15;;;18.58;;
31872;SDS011;22407;42.820;23.374;2024-03-17T06:12:58;50.08;;;23.15;;
31872;SDS011;22407;42.820;23.374;2024-03-17T06:15:24;42.40;;;22.97;;
31872;SDS011;22407;42.820;23.374;2024-03-17T06:17:50;49.00;;;24.38;;
31872;SDS011;22407;42.820;23.374;2024-03-17T06:20:23;42.20;;;21.70;;
31872;SDS011;22407;42.820;23.374;2024-03-17T06:22:55;52.67;;;23.80;;
31872;SDS011;22407;42.820;23.374;2024-03-17T06:25:24;49.70;;;25.45;;
31872;SDS011;22407;42.820;23.374;2024-03-17T06:27:55;57.30;;;28.93;;
31872;SDS011;22407;42.820;23.374;2024-03-17T06:30:26;60.83;;;29.85;;
31872;SDS011;22407;42.820;23.374;2024-03-17T06:32:52;58.93;;;31.50;;
31872;SDS011;22407;42.820;23.374;2024-03-17T06:35:18;62.35;;;30.77;;
31872;SDS011;22407;42.820;23.374;2024-03-17T06:37:46;49.87;;;26.90;;
31872;SDS011;22407;42.820;23.374;2024-03-17T06:40:12;39.95;;;21.38;;
31872;SDS011;22407;42.820;23.374;2024-03-17T06:42:39;27.42;;;14.93;;
31872;SDS011;22407;42.820;23.374;2024-03-17T06:45:05;31.10;;;17.63;;
31872;SDS011;22407;42.820;23.374;2024-03-17T06:47:33;29.33;;;14.27;;
31872;SDS011;22407;42.820;23.374;2024-03-17T06:50:00;22.08;;;12.48;;
31872;SDS011;22407;42.820;23.374;2024-03-17T06:52:26;24.73;;;14.23;;
31872;SDS011;22407;42.820;23.374;2024-03-17T06:54:52;31.27;;;14.73;;
31872;SDS011;22407;42.820;23.374;2024-03-17T06:57:17;25.87;;;13.57;;
31872;SDS011;22407;42.820;23.374;2024-03-17T06:59:43;43.10;;;24.50;;
31872;SDS011;22407;42.820;23.374;2024-03-17T07:02:09;30.90;;;17.73;;
31872;SDS011;22407;42.820;23.374;2024-03-17T07:04:37;27.95;;;14.57;;
31872;SDS011;22407;42.820;23.374;2024-03-17T07:07:03;23.30;;;13.43;;
31872;SDS011;22407;42.820;23.374;2024-03-17T07:09:28;23.90;;;13.80;;
31872;SDS011;22407;42.820;23.374;2024-03-17T07:11:54;24.77;;;13.95;;
31872;SDS011;22407;42.820;23.374;2024-03-17T07:14:19;25.27;;;14.17;;
31872;SDS011;22407;42.820;23.374;2024-03-17T07:16:45;23.23;;;12.47;;
31872;SDS011;22407;42.820;23.374;2024-03-17T07:19:11;20.42;;;11.50;;
31872;SDS011;22407;42.820;23.374;2024-03-17T07:21:36;21.77;;;11.33;;
31872;SDS011;22407;42.820;23.374;2024-03-17T07:24:02;20.98;;;10.68;;
31872;SDS011;22407;42.820;23.374;2024-03-17T07:26:30;20.02;;;10.63;;
31872;SDS011;22407;42.820;23.374;2024-03-17T07:28:56;18.90;;;10.07;;
31872;SDS011;22407;42.820;23.374;2024-03-17T07:31:21;20.15;;;11.50;;
31872;SDS011;22407;42.820;23.374;2024-03-17T07:33:47;22.17;;;11.87;;
31872;SDS011;22407;42.820;23.374;2024-03-17T07:36:13;23.17;;;12.40;;
31872;SDS011;22407;42.820;23.374;2024-03-17T07:38:38;24.27;;;12.70;;
31872;SDS011;22407;42.820;23.374;2024-03-17T07:41:05;25.08;;;12.82;;
31872;SDS011;22407;42.820;23.374;2024-03-17T07:43:35;26.15;;;12.82;;
31872;SDS011;22407;42.820;23.374;2024-03-17T07:46:11;21.50;;;11.23;;
31872;SDS011;22407;42.820;23.374;2024-03-17T07:48:38;22.45;;;11.38;;
31872;SDS011;22407;42.820;23.374;2024-03-17T07:51:08;19.77;;;10.20;;
31872;SDS011;22407;42.820;23.374;2024-03-17T07:53:35;17.30;;;9.07;;
31872;SDS011;22407;42.820;23.374;2024-03-17T07:56:02;19.92;;;10.82;;
31872;SDS011;22407;42.820;23.374;2024-03-17T07:58:29;19.30;;;10.03;;
31872;SDS011;22407;42.820;23.374;2024-03-17T08:01:02;19.17;;;9.95;;
31872;SDS011;22407;42.820;23.374;2024-03-17T08:03:29;20.13;;;10.70;;
31872;SDS011;22407;42.820;23.374;2024-03-17T08:05:56;18.73;;;10.00;;
31872;SDS011;22407;42.820;23.374;2024-03-17T08:08:23;20.67;;;11.15;;
31872;SDS011;22407;42.820;23.374;2024-03-17T08:10:49;20.93;;;11.13;;
31872;SDS011;22407;42.820;23.374;2024-03-17T08:13:16;21.85;;;11.57;;
31872;SDS011;22407;42.820;23.374;2024-03-17T08:15:45;23.80;;;11.60;;
31872;SDS011;22407;42.820;23.374;2024-03-17T08:18:11;22.25;;;11.45;;
31872;SDS011;22407;42.820;23.374;2024-03-17T08:20:38;28.90;;;13.07;;
31872;SDS011;22407;42.820;23.374;2024-03-17T08:23:07;30.38;;;13.88;;
31872;SDS011;22407;42.820;23.374;2024-03-17T08:25:36;28.02;;;14.20;;
31872;SDS011;22407;42.820;23.374;2024-03-17T08:28:01;24.08;;;12.75;;
31872;SDS011;22407;42.820;23.374;2024-03-17T08:30:28;25.63;;;12.87;;
31872;SDS011;22407;42.820;23.374;2024-03-17T08:32:55;28.17;;;13.35;;
31872;SDS011;22407;42.820;23.374;2024-03-17T08:35:24;27.52;;;14.23;;
31872;SDS011;22407;42.820;23.374;2024-03-17T08:37:49;27.50;;;14.23;;
31872;SDS011;22407;42.820;23.374;2024-03-17T08:40:21;27.63;;;13.95;;
31872;SDS011;22407;42.820;23.374;2024-03-17T08:42:47;26.52;;;13.57;;
31872;SDS011;22407;42.820;23.374;2024-03-17T08:45:13;24.45;;;13.23;;
31872;SDS011;22407;42.820;23.374;2024-03-17T08:47:39;23.57;;;11.33;;
31872;SDS011;22407;42.820;23.374;2024-03-17T08:50:04;22.60;;;10.67;;
31872;SDS011;22407;42.820;23.374;2024-03-17T08:52:33;20.75;;;10.10;;
31872;SDS011;22407;42.820;23.374;2024-03-17T08:55:01;22.08;;;10.30;;
31872;SDS011;22407;42.820;23.374;2024-03-17T08:57:35;17.90;;;9.02;;
31872;SDS011;22407;42.820;23.374;2024-03-17T09:00:00;19.57;;;8.60;;
31872;SDS011;22407;42.820;23.374;2024-03-17T09:02:26;18.03;;;8.60;;
31872;SDS011;22407;42.820;23.374;2024-03-17T09:04:51;18.42;;;8.85;;
31872;SDS011;22407;42.820;23.374;2024-03-17T09:07:17;16.23;;;8.10;;
31872;SDS011;22407;42.820;23.374;2024-03-17T09:09:43;14.98;;;7.75;;
31872;SDS011;22407;42.820;23.374;2024-03-17T09:12:09;16.47;;;7.77;;
31872;SDS011;22407;42.820;23.374;2024-03-17T09:14:34;15.07;;;7.20;;
31872;SDS011;22407;42.820;23.374;2024-03-17T09:17:03;14.50;;;7.20;;
31872;SDS011;22407;42.820;23.374;2024-03-17T09:19:32;15.63;;;7.63;;
31872;SDS011;22407;42.820;23.374;2024-03-17T09:26:13;13.98;;;6.72;;
31872;SDS011;22407;42.820;23.374;2024-03-17T09:32:33;14.17;;;6.90;;
31872;SDS011;22407;42.820;23.374;2024-03-17T09:35:02;14.27;;;7.03;;
31872;SDS011;22407;42.820;23.374;2024-03-17T09:38:32;13.35;;;6.45;;
31872;SDS011;22407;42.820;23.374;2024-03-17T09:41:32;12.43;;;6.28;;
31872;SDS011;22407;42.820;23.374;2024-03-17T09:44:42;15.68;;;7.25;;
31872;SDS011;22407;42.820;23.374;2024-03-17T09:47:23;13.00;;;6.80;;
31872;SDS011;22407;42.820;23.374;2024-03-17T09:50:04;14.00;;;7.10;;
31872;SDS011;22407;42.820;23.374;2024-03-17T09:53:22;13.65;;;7.35;;
31872;SDS011;22407;42.820;23.374;2024-03-17T09:56:30;14.40;;;7.25;;
31872;SDS011;22407;42.820;23.374;2024-03-17T10:02:30;14.00;;;7.13;;
31872;SDS011;22407;42.820;23.374;2024-03-17T10:05:30;14.38;;;7.10;;
31872;SDS011;22407;42.820;23.374;2024-03-17T10:15:02;13.15;;;6.40;;
31872;SDS011;22407;42.820;23.374;2024-03-17T10:17:37;13.30;;;6.53;;
31872;SDS011;22407;42.820;23.374;2024-03-17T10:23:40;14.77;;;7.57;;
31872;SDS011;22407;42.820;23.374;2024-03-17T10:26:42;13.13;;;6.53;;
31872;SDS011;22407;42.820;23.374;2024-03-17T10:33:54;14.77;;;6.70;;
31872;SDS011;22407;42.820;23.374;2024-03-17T10:37:10;13.80;;;6.53;;
31872;SDS011;22407;42.820;23.374;2024-03-17T10:40:21;13.75;;;6.13;;
31872;SDS011;22407;42.820;23.374;2024-03-17T10:42:55;13.32;;;6.85;;
31872;SDS011;22407;42.820;23.374;2024-03-17T10:45:21;12.48;;;6.65;;
31872;SDS011;22407;42.820;23.374;2024-03-17T10:47:48;19.67;;;7.90;;
31872;SDS011;22407;42.820;23.374;2024-03-17T10:50:19;14.80;;;7.50;;
31872;SDS011;22407;42.820;23.374;2024-03-17T10:52:50;14.70;;;6.68;;
31872;SDS011;22407;42.820;23.374;2024-03-17T10:55:26;14.30;;;5.97;;
31872;SDS011;22407;42.820;23.374;2024-03-17T10:57:52;14.88;;;6.07;;
31872;SDS011;22407;42.820;23.374;2024-03-17T11:00:23;15.77;;;6.20;;
31872;SDS011;22407;42.820;23.374;2024-03-17T11:02:51;14.48;;;6.63;;
31872;SDS011;22407;42.820;23.374;2024-03-17T11:05:29;15.05;;;7.03;;
31872;SDS011;22407;42.820;23.374;2024-03-17T11:07:55;13.00;;;6.85;;
31872;SDS011;22407;42.820;23.374;2024-03-17T11:13:36;13.50;;;6.20;;
31872;SDS011;22407;42.820;23.374;2024-03-17T11:17:16;14.68;;;6.30;;
31872;SDS011;22407;42.820;23.374;2024-03-17T11:20:08;12.60;;;6.00;;
31872;SDS011;22407;42.820;23.374;2024-03-17T11:22:41;11.30;;;4.95;;
31872;SDS011;22407;42.820;23.374;2024-03-17T11:27:54;10.07;;;4.73;;
31872;SDS011;22407;42.820;23.374;2024-03-17T11:38:54;9.48;;;4.32;;
31872;SDS011;22407;42.820;23.374;2024-03-17T11:44:15;10.23;;;4.45;;
31872;SDS011;22407;42.820;23.374;2024-03-17T11:46:50;9.52;;;4.43;;
31872;SDS011;22407;42.820;23.374;2024-03-17T11:49:22;11.02;;;4.75;;
31872;SDS011;22407;42.820;23.374;2024-03-17T11:51:59;10.90;;;5.15;;
31872;SDS011;22407;42.820;23.374;2024-03-17T11:54:26;10.83;;;4.90;;
31872;SDS011;22407;42.820;23.374;2024-03-17T11:56:56;13.40;;;4.93;;
31872;SDS011;22407;42.820;23.374;2024-03-17T11:59:26;14.95;;;5.85;;
31872;SDS011;22407;42.820;23.374;2024-03-17T12:01:52;14.48;;;5.47;;
31872;SDS011;22407;42.820;23.374;2024-03-17T12:04:19;8.73;;;4.30;;
31872;SDS011;22407;42.820;23.374;2024-03-17T12:06:47;11.57;;;5.20;;
31872;SDS011;22407;42.820;23.374;2024-03-17T12:14:34;11.27;;;4.68;;
31872;SDS011;22407;42.820;23.374;2024-03-17T12:17:02;10.07;;;4.88;;
31872;SDS011;22407;42.820;23.374;2024-03-17T12:19:33;10.10;;;4.40;;
31872;SDS011;22407;42.820;23.374;2024-03-17T12:21:59;13.30;;;4.78;;
31872;SDS011;22407;42.820;23.374;2024-03-17T12:24:26;9.90;;;4.20;;
31872;SDS011;22407;42.820;23.374;2024-03-17T12:26:53;12.13;;;4.60;;
31872;SDS011;22407;42.820;23.374;2024-03-17T12:29:37;10.27;;;4.97;;
31872;SDS011;22407;42.820;23.374;2024-03-17T12:34:36;11.57;;;5.40;;
31872;SDS011;22407;42.820;23.374;2024-03-17T12:37:02;10.27;;;4.90;;
31872;SDS011;22407;42.820;23.374;2024-03-17T12:39:32;11.80;;;5.20;;
31872;SDS011;22407;42.820;23.374;2024-03-17T12:42:08;10.52;;;5.20;;
31872;SDS011;22407;42.820;23.374;2024-03-17T12:47:34;10.45;;;5.35;;
31872;SDS011;22407;42.820;23.374;2024-03-17T12:50:00;12.88;;;5.68;;
31872;SDS011;22407;42.820;23.374;2024-03-17T12:52:31;11.37;;;4.83;;
31872;SDS011;22407;42.820;23.374;2024-03-17T12:55:02;12.50;;;5.55;;
31872;SDS011;22407;42.820;23.374;2024-03-17T12:57:50;13.52;;;5.93;;
31872;SDS011;22407;42.820;23.374;2024-03-17T13:00:36;11.25;;;5.60;;
31872;SDS011;22407;42.820;23.374;2024-03-17T13:03:07;12.77;;;5.60;;
31872;SDS011;22407;42.820;23.374;2024-03-17T13:05:34;10.53;;;5.00;;
31872;SDS011;22407;42.820;23.374;2024-03-17T13:08:00;10.75;;;4.70;;
31872;SDS011;22407;42.820;23.374;2024-03-17T13:10:31;9.65;;;4.85;;
31872;SDS011;22407;42.820;23.374;2024-03-17T13:13:00;10.02;;;4.57;;
31872;SDS011;22407;42.820;23.374;2024-03-17T13:15:32;9.87;;;4.73;;
31872;SDS011;22407;42.820;23.374;2024-03-17T13:17:58;9.85;;;4.70;;
31872;SDS011;22407;42.820;23.374;2024-03-17T13:20:24;9.75;;;4.75;;
31872;SDS011;22407;42.820;23.374;2024-03-17T13:22:50;10.07;;;5.22;;
31872;SDS011;22407;42.820;23.374;2024-03-17T13:25:17;11.67;;;5.70;;
31872;SDS011;22407;42.820;23.374;2024-03-17T13:27:46;10.38;;;4.88;;
31872;SDS011;22407;42.820;23.374;2024-03-17T13:30:16;60.17;;;16.23;;
31872;SDS011;22407;42.820;23.374;2024-03-17T13:32:47;43.67;;;12.05;;
31872;SDS011;22407;42.820;23.374;2024-03-17T13:35:16;13.68;;;5.95;;
31872;SDS011;22407;42.820;23.374;2024-03-17T13:37:46;43.57;;;12.90;;
31872;SDS011;22407;42.820;23.374;2024-03-17T13:40:13;15.10;;;6.95;;
31872;SDS011;22407;42.820;23.374;2024-03-17T13:42:44;12.45;;;5.93;;
31872;SDS011;22407;42.820;23.374;2024-03-17T13:45:11;17.83;;;7.68;;
31872;SDS011;22407;42.820;23.374;2024-03-17T13:47:38;16.00;;;6.72;;
31872;SDS011;22407;42.820;23.374;2024-03-17T13:50:05;14.57;;;6.27;;
31872;SDS011;22407;42.820;23.374;2024-03-17T13:52:44;10.85;;;5.13;;
31872;SDS011;22407;42.820;23.374;2024-03-17T13:55:13;13.20;;;5.85;;
31872;SDS011;22407;42.820;23.374;2024-03-17T13:57:49;28.40;;;10.40;;
31872;SDS011;22407;42.820;23.374;2024-03-17T14:00:16;13.50;;;5.85;;
31872;SDS011;22407;42.820;23.374;2024-03-17T14:02:43;9.90;;;4.90;;
31872;SDS011;22407;42.820;23.374;2024-03-17T14:05:12;17.30;;;7.28;;
31872;SDS011;22407;42.820;23.374;2024-03-17T14:07:38;14.50;;;6.93;;
31872;SDS011;22407;42.820;23.374;2024-03-17T14:10:05;17.73;;;8.88;;
31872;SDS011;22407;42.820;23.374;2024-03-17T14:12:33;14.95;;;7.47;;
31872;SDS011;22407;42.820;23.374;2024-03-17T14:14:59;22.70;;;11.23;;
31872;SDS011;22407;42.820;23.374;2024-03-17T14:17:25;23.90;;;10.82;;
31872;SDS011;22407;42.820;23.374;2024-03-17T14:19:50;32.90;;;14.00;;
31872;SDS011;22407;42.820;23.374;2024-03-17T14:22:16;30.33;;;12.23;;
31872;SDS011;22407;42.820;23.374;2024-03-17T14:24:42;20.77;;;9.20;;
31872;SDS011;22407;42.820;23.374;2024-03-17T14:27:07;14.50;;;6.90;;
31872;SDS011;22407;42.820;23.374;2024-03-17T14:29:34;14.80;;;7.03;;
31872;SDS011;22407;42.820;23.374;2024-03-17T14:31:59;14.77;;;7.30;;
31872;SDS011;22407;42.820;23.374;2024-03-17T14:34:25;13.57;;;7.25;;
31872;SDS011;22407;42.820;23.374;2024-03-17T14:36:52;13.38;;;6.75;;
31872;SDS011;22407;42.820;23.374;2024-03-17T14:39:17;13.17;;;6.00;;
31872;SDS011;22407;42.820;23.374;2024-03-17T14:41:43;12.03;;;5.57;;
31872;SDS011;22407;42.820;23.374;2024-03-17T14:44:09;15.65;;;7.68;;
31872;SDS011;22407;42.820;23.374;2024-03-17T14:46:34;13.23;;;7.00;;
31872;SDS011;22407;42.820;23.374;2024-03-17T14:49:00;13.57;;;6.38;;
31872;SDS011;22407;42.820;23.374;2024-03-17T14:51:26;13.97;;;6.47;;
31872;SDS011;22407;42.820;23.374;2024-03-17T14:53:52;20.65;;;9.68;;
31872;SDS011;22407;42.820;23.374;2024-03-17T14:56:18;17.13;;;8.68;;
31872;SDS011;22407;42.820;23.374;2024-03-17T14:58:44;15.77;;;7.27;;
31872;SDS011;22407;42.820;23.374;2024-03-17T15:01:13;12.98;;;6.15;;
31872;SDS011;22407;42.820;23.374;2024-03-17T15:03:39;11.13;;;5.30;;
31872;SDS011;22407;42.820;23.374;2024-03-17T15:06:11;11.83;;;5.00;;
31872;SDS011;22407;42.820;23.374;2024-03-17T15:08:38;10.45;;;5.07;;
31872;SDS011;22407;42.820;23.374;2024-03-17T15:11:04;11.70;;;5.20;;
31872;SDS011;22407;42.820;23.374;2024-03-17T15:13:31;10.80;;;5.00;;
31872;SDS011;22407;42.820;23.374;2024-03-17T15:15:59;11.80;;;5.18;;
31872;SDS011;22407;42.820;23.374;2024-03-17T15:18:24;14.57;;;6.90;;
31872;SDS011;22407;42.820;23.374;2024-03-17T15:20:53;17.63;;;7.77;;
31872;SDS011;22407;42.820;23.374;2024-03-17T15:23:20;20.88;;;8.82;;